3 – eServices

Baggage tracing
Cargo tracing
Weather
  • METAR

    EFMA 292120Z AUTO 35009KT 9999 -RA BKN006 OVC027 01/00 Q1016

    EFTU 292120Z AUTO 36008KT 8000 -SN BKN008/// OVC015/// 00/M00 Q1012

    EFHK 292120Z 01009KT 9999 -SN BKN006 BKN010 00/M00 Q1009 NOSIG

    ESSA 292050Z 33014KT CAVOK 02/M01 Q1018 R01L/15//95 R08/15//95 R01R/15//95 NOSIG

    ESSB 292050Z AUTO 32010KT 9999 NCD 03/M02 Q1018

  • TAF n/a

Flightradar24